PAL454 RPMR-RPLL
Flight info
| Callsign | PAL454 |
|---|---|
| Flight time | N/A |
| Altitude | 38000 |
| Route | LATIA4P LATIA W6 LUMVI B473 LAIYA LAIYA7R |
| Aircraft | A333/H-SDE3GHIJ2J3J5M1RVWXY/LB2D1 |
Departure
| Time | 2026-04-22 08:35 |
|---|---|
| Airport | General Santos International Airport (RPMR) |
Arrival
| Time | N/A |
|---|---|
| Airport | Ninoy Aquino International Airport (RPLL) |
| Time | Latitude | Longitude | Altitude | Speed | Heading |
|---|---|---|---|---|---|
| 2026-04-22 08:26 | 6.05669 | 125.09883 | 514 ft | 0 kts | 173° |
| 2026-04-22 08:29 | 6.05650 | 125.09885 | 514 ft | 7 kts | 173° |
| 2026-04-22 08:29 | 6.05590 | 125.09892 | 514 ft | 9 kts | 173° |
| 2026-04-22 08:29 | 6.05528 | 125.09901 | 514 ft | 8 kts | 173° |
| 2026-04-22 08:29 | 6.05467 | 125.09908 | 514 ft | 9 kts | 173° |
| 2026-04-22 08:30 | 6.05416 | 125.09862 | 514 ft | 15 kts | 262° |
| 2026-04-22 08:30 | 6.05404 | 125.09738 | 514 ft | 19 kts | 264° |
| 2026-04-22 08:30 | 6.05323 | 125.09676 | 514 ft | 17 kts | 173° |
| 2026-04-22 08:30 | 6.05185 | 125.09693 | 514 ft | 21 kts | 172° |
| 2026-04-22 08:31 | 6.05032 | 125.09712 | 514 ft | 23 kts | 172° |
| 2026-04-22 08:31 | 6.04870 | 125.09731 | 514 ft | 23 kts | 173° |
| 2026-04-22 08:31 | 6.04556 | 125.09769 | 514 ft | 19 kts | 171° |
| 2026-04-22 08:32 | 6.04509 | 125.09868 | 514 ft | 17 kts | 82° |
| 2026-04-22 08:32 | 6.04468 | 125.09952 | 514 ft | 14 kts | 163° |
| 2026-04-22 08:32 | 6.04396 | 125.09912 | 514 ft | 13 kts | 262° |
| 2026-04-22 08:32 | 6.04388 | 125.09825 | 514 ft | 12 kts | 273° |
| 2026-04-22 08:33 | 6.04444 | 125.09784 | 514 ft | 1 kts | 352° |
| 2026-04-22 08:34 | 6.04562 | 125.09769 | 514 ft | 52 kts | 353° |
| 2026-04-22 08:34 | 6.05234 | 125.09688 | 515 ft | 141 kts | 353° |
| 2026-04-22 08:35 | 6.06393 | 125.09547 | 773 ft | 187 kts | 355° |
| 2026-04-22 08:35 | 6.07667 | 125.09402 | 1603 ft | 197 kts | 0° |
| 2026-04-22 08:35 | 6.08986 | 125.09649 | 2528 ft | 206 kts | 23° |
| 2026-04-22 08:35 | 6.10293 | 125.10208 | 3100 ft | 215 kts | 24° |
| 2026-04-22 08:36 | 6.11717 | 125.10813 | 3576 ft | 231 kts | 24° |
| 2026-04-22 08:36 | 6.13195 | 125.11510 | 3996 ft | 249 kts | 33° |
| 2026-04-22 08:36 | 6.14510 | 125.12677 | 4503 ft | 263 kts | 47° |
| 2026-04-22 08:36 | 6.15682 | 125.14053 | 5249 ft | 266 kts | 51° |
| 2026-04-22 08:37 | 6.16806 | 125.15489 | 5992 ft | 269 kts | 52° |
| 2026-04-22 08:37 | 6.17927 | 125.16963 | 6738 ft | 273 kts | 52° |
| 2026-04-22 08:37 | 6.19058 | 125.18465 | 7457 ft | 277 kts | 52° |
| 2026-04-22 08:37 | 6.20187 | 125.19969 | 8180 ft | 279 kts | 53° |
| 2026-04-22 08:38 | 6.21316 | 125.21474 | 8872 ft | 283 kts | 53° |
| 2026-04-22 08:38 | 6.22512 | 125.23028 | 9550 ft | 287 kts | 48° |
| 2026-04-22 08:38 | 6.24127 | 125.24165 | 10179 ft | 293 kts | 22° |
| 2026-04-22 08:38 | 6.26145 | 125.24564 | 10598 ft | 309 kts | 4° |
| 2026-04-22 08:39 | 6.28298 | 125.24581 | 10859 ft | 327 kts | 355° |
| 2026-04-22 08:39 | 6.30459 | 125.23938 | 11035 ft | 346 kts | 335° |
| 2026-04-22 08:39 | 6.32593 | 125.22832 | 11198 ft | 364 kts | 333° |
| 2026-04-22 08:39 | 6.34873 | 125.21629 | 11535 ft | 375 kts | 333° |
| 2026-04-22 08:40 | 6.37122 | 125.20440 | 12084 ft | 377 kts | 333° |
| 2026-04-22 08:40 | 6.39468 | 125.19197 | 12652 ft | 380 kts | 333° |
| 2026-04-22 08:40 | 6.41780 | 125.17972 | 13207 ft | 383 kts | 333° |
| 2026-04-22 08:40 | 6.44098 | 125.16742 | 13720 ft | 386 kts | 333° |
| 2026-04-22 08:41 | 6.46485 | 125.15477 | 14200 ft | 389 kts | 333° |
| 2026-04-22 08:41 | 6.48839 | 125.14229 | 14671 ft | 392 kts | 333° |
| 2026-04-22 08:41 | 6.51160 | 125.12998 | 15095 ft | 395 kts | 333° |
| 2026-04-22 08:41 | 6.53552 | 125.11729 | 15571 ft | 397 kts | 333° |
| 2026-04-22 08:42 | 6.55894 | 125.10488 | 16020 ft | 399 kts | 333° |
| 2026-04-22 08:42 | 6.58289 | 125.09222 | 16429 ft | 402 kts | 333° |
| 2026-04-22 08:42 | 6.60712 | 125.07935 | 16843 ft | 404 kts | 333° |
| 2026-04-22 08:42 | 6.63193 | 125.06619 | 17251 ft | 407 kts | 333° |
| 2026-04-22 08:43 | 6.65597 | 125.05344 | 17634 ft | 410 kts | 333° |
| 2026-04-22 08:43 | 6.68125 | 125.04002 | 18012 ft | 413 kts | 333° |
| 2026-04-22 08:43 | 6.70611 | 125.02683 | 18383 ft | 416 kts | 333° |
| 2026-04-22 08:43 | 6.73121 | 125.01350 | 18749 ft | 418 kts | 333° |
| 2026-04-22 08:44 | 6.75627 | 125.00019 | 19100 ft | 421 kts | 334° |
| 2026-04-22 08:44 | 6.78168 | 124.98670 | 19441 ft | 423 kts | 334° |
| 2026-04-22 08:44 | 6.80722 | 124.97315 | 19771 ft | 426 kts | 334° |
| 2026-04-22 08:44 | 6.83312 | 124.95939 | 20105 ft | 428 kts | 334° |
| 2026-04-22 08:45 | 6.85883 | 124.94574 | 20419 ft | 431 kts | 334° |
| 2026-04-22 08:45 | 6.88493 | 124.93188 | 20719 ft | 434 kts | 334° |
| 2026-04-22 08:45 | 6.91110 | 124.91902 | 20992 ft | 434 kts | 341° |
| 2026-04-22 08:45 | 6.93958 | 124.91260 | 21262 ft | 433 kts | 353° |
| 2026-04-22 08:46 | 6.96881 | 124.90752 | 21562 ft | 436 kts | 351° |
| 2026-04-22 08:46 | 6.99822 | 124.90180 | 21867 ft | 438 kts | 351° |
| 2026-04-22 08:46 | 7.02693 | 124.89601 | 22135 ft | 440 kts | 351° |
| 2026-04-22 08:46 | 7.05649 | 124.88996 | 22431 ft | 442 kts | 351° |
| 2026-04-22 08:47 | 7.08611 | 124.88388 | 22705 ft | 444 kts | 350° |
| 2026-04-22 08:47 | 7.11578 | 124.87776 | 22964 ft | 446 kts | 350° |
| 2026-04-22 08:47 | 7.14600 | 124.87152 | 23245 ft | 447 kts | 350° |
| 2026-04-22 08:47 | 7.17586 | 124.86536 | 23505 ft | 449 kts | 350° |
| 2026-04-22 08:48 | 7.20602 | 124.85913 | 23778 ft | 451 kts | 350° |
| 2026-04-22 08:48 | 7.23598 | 124.85294 | 24033 ft | 453 kts | 350° |
| 2026-04-22 08:48 | 7.26619 | 124.84670 | 24282 ft | 455 kts | 350° |
| 2026-04-22 08:48 | 7.29631 | 124.84049 | 24558 ft | 456 kts | 350° |
| 2026-04-22 08:49 | 7.32671 | 124.83422 | 24792 ft | 458 kts | 350° |
| 2026-04-22 08:49 | 7.35733 | 124.82791 | 25035 ft | 460 kts | 349° |
| 2026-04-22 08:49 | 7.38781 | 124.82163 | 25261 ft | 462 kts | 349° |
| 2026-04-22 08:49 | 7.41892 | 124.81521 | 25495 ft | 464 kts | 349° |
| 2026-04-22 08:50 | 7.44961 | 124.80887 | 25730 ft | 466 kts | 349° |
| 2026-04-22 08:50 | 7.48090 | 124.80242 | 25968 ft | 467 kts | 349° |
| 2026-04-22 08:50 | 7.51187 | 124.79602 | 26214 ft | 469 kts | 349° |
| 2026-04-22 08:50 | 7.54355 | 124.78948 | 26453 ft | 470 kts | 349° |
| 2026-04-22 08:51 | 7.57499 | 124.78299 | 26671 ft | 472 kts | 349° |
| 2026-04-22 08:51 | 7.60653 | 124.77647 | 26872 ft | 474 kts | 349° |
| 2026-04-22 08:51 | 7.63817 | 124.76994 | 27088 ft | 476 kts | 349° |
| 2026-04-22 08:51 | 7.66954 | 124.76347 | 27303 ft | 478 kts | 349° |
| 2026-04-22 08:52 | 7.70149 | 124.75687 | 27532 ft | 480 kts | 349° |
| 2026-04-22 08:52 | 7.73328 | 124.75030 | 27742 ft | 481 kts | 349° |
| 2026-04-22 08:52 | 7.76566 | 124.74360 | 27970 ft | 483 kts | 349° |
| 2026-04-22 08:52 | 7.79793 | 124.73694 | 28218 ft | 484 kts | 349° |
| 2026-04-22 08:53 | 7.83005 | 124.73030 | 28418 ft | 485 kts | 349° |
| 2026-04-22 08:53 | 7.86260 | 124.72356 | 28619 ft | 487 kts | 349° |
| 2026-04-22 08:53 | 7.89433 | 124.71701 | 28844 ft | 488 kts | 349° |
| 2026-04-22 08:53 | 7.92666 | 124.71031 | 29058 ft | 488 kts | 349° |
| 2026-04-22 08:54 | 7.95962 | 124.70350 | 29318 ft | 488 kts | 349° |
| 2026-04-22 08:54 | 7.99283 | 124.69663 | 29654 ft | 487 kts | 349° |
| 2026-04-22 08:54 | 8.02490 | 124.69001 | 29968 ft | 486 kts | 349° |
| 2026-04-22 08:54 | 8.05875 | 124.68302 | 30321 ft | 485 kts | 349° |
| 2026-04-22 08:55 | 8.09147 | 124.67626 | 30672 ft | 483 kts | 349° |
| 2026-04-22 08:55 | 8.12029 | 124.67030 | 30977 ft | 482 kts | 349° |
| 2026-04-22 08:55 | 8.15502 | 124.66313 | 31333 ft | 481 kts | 349° |
| 2026-04-22 08:55 | 8.18644 | 124.65664 | 31665 ft | 479 kts | 349° |
| 2026-04-22 08:56 | 8.21794 | 124.65012 | 32045 ft | 477 kts | 349° |
| 2026-04-22 08:56 | 8.25001 | 124.64348 | 32366 ft | 477 kts | 349° |
| 2026-04-22 08:56 | 8.28166 | 124.63695 | 32636 ft | 477 kts | 349° |
| 2026-04-22 08:56 | 8.31357 | 124.63035 | 32946 ft | 477 kts | 348° |
| 2026-04-22 08:57 | 8.34531 | 124.62378 | 33206 ft | 478 kts | 348° |
| 2026-04-22 08:57 | 8.37724 | 124.61718 | 33522 ft | 477 kts | 348° |
| 2026-04-22 08:57 | 8.40899 | 124.60992 | 33854 ft | 476 kts | 342° |
| 2026-04-22 08:57 | 8.43715 | 124.59712 | 34162 ft | 475 kts | 330° |
| 2026-04-22 08:58 | 8.46408 | 124.58141 | 34537 ft | 474 kts | 330° |
| 2026-04-22 08:58 | 8.49339 | 124.56448 | 34924 ft | 473 kts | 330° |
| 2026-04-22 08:58 | 8.52099 | 124.54855 | 35295 ft | 472 kts | 330° |
| 2026-04-22 08:58 | 8.54912 | 124.53233 | 35744 ft | 469 kts | 330° |
| 2026-04-22 08:59 | 8.57646 | 124.51655 | 36166 ft | 467 kts | 330° |
| 2026-04-22 08:59 | 8.60390 | 124.50069 | 36299 ft | 470 kts | 330° |
| 2026-04-22 08:59 | 8.63173 | 124.48465 | 36721 ft | 467 kts | 330° |
| 2026-04-22 08:59 | 8.65929 | 124.46873 | 36952 ft | 469 kts | 330° |
| 2026-04-22 09:00 | 8.68646 | 124.45306 | 37297 ft | 467 kts | 329° |
| 2026-04-22 09:00 | 8.71414 | 124.43707 | 37592 ft | 466 kts | 329° |
| 2026-04-22 09:00 | 8.74181 | 124.42107 | 37826 ft | 467 kts | 330° |
| 2026-04-22 09:01 | 8.79645 | 124.38950 | 37809 ft | 474 kts | 329° |
| 2026-04-22 09:01 | 8.85284 | 124.35690 | 37805 ft | 474 kts | 330° |
| 2026-04-22 09:02 | 8.90473 | 124.32690 | 37800 ft | 471 kts | 330° |
| 2026-04-22 09:02 | 8.93826 | 124.30752 | 37813 ft | 470 kts | 330° |
| 2026-04-22 09:03 | 8.97014 | 124.28907 | 37804 ft | 471 kts | 330° |
| 2026-04-22 09:03 | 9.01827 | 124.26124 | 37820 ft | 473 kts | 329° |
| 2026-04-22 09:04 | 9.07405 | 124.22890 | 37824 ft | 474 kts | 329° |
| 2026-04-22 09:04 | 9.12842 | 124.19734 | 37820 ft | 473 kts | 329° |
| 2026-04-22 09:05 | 9.18574 | 124.16409 | 37821 ft | 473 kts | 329° |
| 2026-04-22 09:05 | 9.24171 | 124.13160 | 37822 ft | 473 kts | 329° |
| 2026-04-22 09:06 | 9.29782 | 124.09901 | 37824 ft | 473 kts | 329° |
| 2026-04-22 09:06 | 9.35434 | 124.06620 | 37825 ft | 472 kts | 329° |
| 2026-04-22 09:07 | 9.41086 | 124.03351 | 37823 ft | 472 kts | 329° |
| 2026-04-22 09:07 | 9.46703 | 124.00108 | 37814 ft | 471 kts | 330° |
| 2026-04-22 09:08 | 9.52228 | 123.96905 | 37812 ft | 469 kts | 329° |
| 2026-04-22 09:08 | 9.57816 | 123.93661 | 37819 ft | 471 kts | 329° |
| 2026-04-22 09:09 | 9.63347 | 123.90447 | 37819 ft | 473 kts | 329° |
| 2026-04-22 09:09 | 9.68956 | 123.87187 | 37816 ft | 470 kts | 329° |
| 2026-04-22 09:10 | 9.74454 | 123.83990 | 37823 ft | 469 kts | 329° |
| 2026-04-22 09:10 | 9.80047 | 123.80737 | 37827 ft | 470 kts | 329° |
| 2026-04-22 09:11 | 9.85593 | 123.77510 | 37824 ft | 470 kts | 329° |
| 2026-04-22 09:11 | 9.91121 | 123.74293 | 37826 ft | 470 kts | 329° |
| 2026-04-22 09:12 | 9.96728 | 123.71023 | 37833 ft | 470 kts | 329° |
| 2026-04-22 09:12 | 10.02336 | 123.67750 | 37833 ft | 470 kts | 329° |
| 2026-04-22 09:13 | 10.07829 | 123.64546 | 37838 ft | 470 kts | 329° |
| 2026-04-22 09:13 | 10.13365 | 123.61313 | 37836 ft | 469 kts | 329° |
| 2026-04-22 09:14 | 10.18885 | 123.58089 | 37840 ft | 469 kts | 328° |
| 2026-04-22 09:14 | 10.24404 | 123.54864 | 37832 ft | 469 kts | 329° |
| 2026-04-22 09:15 | 10.29905 | 123.51649 | 37830 ft | 470 kts | 329° |
| 2026-04-22 09:15 | 10.35481 | 123.48398 | 37825 ft | 469 kts | 329° |
| 2026-04-22 09:16 | 10.41038 | 123.45153 | 37846 ft | 470 kts | 329° |
| 2026-04-22 09:16 | 10.46574 | 123.41921 | 37860 ft | 469 kts | 329° |
| 2026-04-22 09:17 | 10.52064 | 123.38715 | 37865 ft | 469 kts | 328° |
| 2026-04-22 09:17 | 10.57690 | 123.35426 | 37871 ft | 469 kts | 329° |
| 2026-04-22 09:18 | 10.63223 | 123.32192 | 37888 ft | 469 kts | 328° |
| 2026-04-22 09:18 | 10.68743 | 123.28969 | 37895 ft | 469 kts | 328° |
| 2026-04-22 09:19 | 10.74185 | 123.25787 | 37897 ft | 470 kts | 328° |
| 2026-04-22 09:19 | 10.79731 | 123.22536 | 37882 ft | 470 kts | 328° |
| 2026-04-22 09:20 | 10.85337 | 123.19249 | 37858 ft | 470 kts | 328° |
| 2026-04-22 09:20 | 10.90898 | 123.15987 | 37836 ft | 470 kts | 328° |
| 2026-04-22 09:21 | 10.96397 | 123.12761 | 37813 ft | 471 kts | 328° |
| 2026-04-22 09:21 | 11.01929 | 123.09512 | 37810 ft | 470 kts | 328° |
| 2026-04-22 09:22 | 11.07426 | 123.06286 | 37804 ft | 471 kts | 328° |
| 2026-04-22 09:22 | 11.12937 | 123.03046 | 37810 ft | 470 kts | 328° |
| 2026-04-22 09:23 | 11.18459 | 122.99802 | 37809 ft | 470 kts | 327° |
| 2026-04-22 09:23 | 11.23882 | 122.96614 | 37813 ft | 471 kts | 327° |
| 2026-04-22 09:24 | 11.29372 | 122.93385 | 37808 ft | 470 kts | 328° |